Minneapolis, Minnesota
Traffic Map
Current Weather Conditions
Minneapolis, Minnesota
Overcast Haze
Overcast
51°
Feels Like: 51°
Wind Chill: 51° Ceiling: 200
Heat Index: 51° Visibility: 5mi
Dew Point: 49° Wind: 7mph
Humidity: 92% Direction: 40° (NE)
Pressure: 30.38in Gusts: 0mph
Raw Report DataKMSP 301309Z 04006KT 5SM BR OVC002 11/09 A3038 RMK AO2 VIS W 2 T01060094
Traffic Incident Summary
Active as of:
Severity:
Category:
InformationThere was an issue retrieving the traffic information for this location. Please try a different location or try again shortly.
Advertisements
Track Severe Weather on mobile